Time;durP1;ratioP1;P1;durP2;ratioP2;P2;SDS_P1;SDS_P2;PMS_P1;PMS_P2;Temp;Humidity;BMP_temperature;BMP_pressure;BME280_temperature;BME280_humidity;BME280_pressure;Samples;Min_cycle;Max_cycle;Signal;HPM_P1;HPM_P2
2022/10/08 00:01:54;;;;;;;16.65;11.82;;;;;;;;;;9932924;29;20087;-60
2022/10/08 00:06:53;;;;;;;26.85;12.38;;;;;;;;;;9940153;29;20533;-60
2022/10/08 00:11:51;;;;;;;13.85;11.85;;;;;;;;;;9959114;29;20080;-61
2022/10/08 00:16:51;;;;;;;15.88;12.32;;;;;;;;;;9958777;29;20553;-60
2022/10/08 00:21:52;;;;;;;13.43;11.48;;;;;;;;;;9951801;29;20095;-60
2022/10/08 00:26:50;;;;;;;16.48;12.13;;;;;;;;;;9938757;29;20872;-61
2022/10/08 00:31:49;;;;;;;17.40;12.70;;;;;;;;;;9938123;29;20081;-61
2022/10/08 00:36:52;;;;;;;13.20;11.20;;;;;;;;;;9937104;29;20099;-59
2022/10/08 00:41:51;;;;;;;20.25;12.13;;;;;;;;;;9938819;29;20077;-59
2022/10/08 00:46:50;;;;;;;15.85;12.90;;;;;;;;;;9934003;29;20095;-61
2022/10/08 00:51:50;;;;;;;14.75;12.43;;;;;;;;;;9944056;29;20542;-61
2022/10/08 00:56:51;;;;;;;15.25;13.15;;;;;;;;;;9962692;29;20418;-61
2022/10/08 01:01:50;;;;;;;14.60;12.48;;;;;;;;;;9957271;29;20076;-60
2022/10/08 01:06:54;;;;;;;13.82;11.90;;;;;;;;;;9943583;29;20088;-61
2022/10/08 01:11:58;;;;;;;14.68;13.13;;;;;;;;;;9935925;29;20478;-60
2022/10/08 01:17:00;;;;;;;16.45;12.25;;;;;;;;;;9935461;29;20080;-60
2022/10/08 01:22:05;;;;;;;17.60;13.35;;;;;;;;;;9935869;29;20072;-60
2022/10/08 01:27:02;;;;;;;;;;;;;;;;;;9936109;29;20486;-60
2022/10/08 01:32:04;;;;;;;17.38;12.80;;;;;;;;;;9897800;29;1123499;-60
2022/10/08 01:37:03;;;;;;;16.17;13.85;;;;;;;;;;9937188;29;20101;-60
2022/10/08 01:42:02;;;;;;;18.75;14.25;;;;;;;;;;9937518;29;20238;-60
2022/10/08 01:47:05;;;;;;;20.15;13.55;;;;;;;;;;9937416;29;20072;-60
2022/10/08 01:52:07;;;;;;;16.52;13.82;;;;;;;;;;9936537;29;20076;-60
2022/10/08 01:57:09;;;;;;;21.25;14.75;;;;;;;;;;9937206;29;20088;-61
2022/10/08 02:02:13;;;;;;;17.20;13.90;;;;;;;;;;9936465;29;20173;-62
2022/10/08 02:07:14;;;;;;;20.67;16.00;;;;;;;;;;9936070;29;20077;-60
2022/10/08 02:12:13;;;;;;;22.63;16.33;;;;;;;;;;9936512;29;20080;-61
2022/10/08 02:17:20;;;;;;;20.40;15.25;;;;;;;;;;9936114;29;20084;-60
2022/10/08 02:22:20;;;;;;;22.30;15.70;;;;;;;;;;9947062;29;20451;-60
2022/10/08 02:27:23;;;;;;;18.02;15.63;;;;;;;;;;9962568;29;20482;-61
2022/10/08 02:32:25;;;;;;;23.92;15.05;;;;;;;;;;9949985;29;20522;-62
2022/10/08 02:37:28;;;;;;;15.43;12.02;;;;;;;;;;9946902;29;20087;-61
2022/10/08 02:42:27;;;;;;;16.70;10.10;;;;;;;;;;9945533;29;20088;-59
2022/10/08 02:47:29;;;;;;;13.23;9.00;;;;;;;;;;9944604;29;20051;-60
2022/10/08 02:52:30;;;;;;;11.07;9.05;;;;;;;;;;9949602;29;20148;-62
2022/10/08 02:57:31;;;;;;;12.52;7.90;;;;;;;;;;9933126;29;20080;-61
2022/10/08 03:02:35;;;;;;;12.65;6.65;;;;;;;;;;9946414;29;20048;-61
2022/10/08 03:07:33;;;;;;;12.23;6.53;;;;;;;;;;9961222;29;20083;-61
2022/10/08 03:12:32;;;;;;;17.55;13.38;;;;;;;;;;9948032;29;20585;-60
2022/10/08 03:17:35;;;;;;;21.52;14.85;;;;;;;;;;9931977;29;20525;-60
2022/10/08 03:22:33;;;;;;;17.75;14.15;;;;;;;;;;9934098;29;20179;-61
2022/10/08 03:27:33;;;;;;;19.63;14.90;;;;;;;;;;9934034;29;20072;-59
2022/10/08 03:32:33;;;;;;;16.50;14.15;;;;;;;;;;9932483;29;20083;-60
2022/10/08 03:37:31;;;;;;;17.05;12.23;;;;;;;;;;9933562;29;20080;-61
2022/10/08 03:42:30;;;;;;;15.85;11.80;;;;;;;;;;9945723;29;20114;-60
2022/10/08 03:47:28;;;;;;;15.82;12.43;;;;;;;;;;9959666;29;20052;-60
2022/10/08 03:52:29;;;;;;;14.80;11.60;;;;;;;;;;9959424;29;20098;-60
2022/10/08 03:57:27;;;;;;;19.85;10.77;;;;;;;;;;9947681;29;20084;-60
2022/10/08 04:02:25;;;;;;;15.00;10.35;;;;;;;;;;9944726;29;20076;-63
2022/10/08 04:07:24;;;;;;;14.10;9.13;;;;;;;;;;9959842;29;20052;-64
2022/10/08 04:12:23;;;;;;;16.95;10.80;;;;;;;;;;9948120;29;20080;-64
2022/10/08 04:17:21;;;;;;;15.13;10.18;;;;;;;;;;9933034;29;20085;-60
2022/10/08 04:22:20;;;;;;;16.75;10.57;;;;;;;;;;9932396;29;20092;-63
2022/10/08 04:27:18;;;;;;;15.85;10.52;;;;;;;;;;9932306;29;20087;-63
2022/10/08 04:32:17;;;;;;;15.00;10.65;;;;;;;;;;9932321;29;20077;-62
2022/10/08 04:37:16;;;;;;;13.48;10.27;;;;;;;;;;9942862;29;20092;-63
2022/10/08 04:42:14;;;;;;;13.27;11.00;;;;;;;;;;9959184;29;20057;-63
2022/10/08 04:47:12;;;;;;;14.43;12.40;;;;;;;;;;9952966;29;20077;-63
2022/10/08 04:52:15;;;;;;;15.27;11.02;;;;;;;;;;9932172;29;20081;-64
2022/10/08 04:57:13;;;;;;;16.50;12.88;;;;;;;;;;9932103;29;20092;-63
2022/10/08 05:02:12;;;;;;;18.10;13.77;;;;;;;;;;9932070;29;20098;-64
2022/10/08 05:07:11;;;;;;;29.83;25.02;;;;;;;;;;9939777;29;20084;-63
2022/10/08 05:12:10;;;;;;;15.45;12.23;;;;;;;;;;9936631;29;20085;-64
2022/10/08 05:17:08;;;;;;;18.65;11.82;;;;;;;;;;9938508;29;20076;-63
2022/10/08 05:22:06;;;;;;;16.23;10.60;;;;;;;;;;9938508;29;20075;-64
2022/10/08 05:27:06;;;;;;;13.55;10.05;;;;;;;;;;9946138;29;20052;-64
2022/10/08 05:32:04;;;;;;;16.73;11.45;;;;;;;;;;9963800;29;20053;-62
2022/10/08 05:37:02;;;;;;;14.00;10.00;;;;;;;;;;9964181;29;20088;-64
2022/10/08 05:42:01;;;;;;;13.10;11.15;;;;;;;;;;9962125;29;20072;-63
2022/10/08 05:47:00;;;;;;;15.77;11.70;;;;;;;;;;9964119;29;20103;-64
2022/10/08 05:51:58;;;;;;;13.15;10.82;;;;;;;;;;9954503;29;20080;-63
2022/10/08 05:56:57;;;;;;;15.68;10.90;;;;;;;;;;9937360;29;20537;-64
2022/10/08 06:01:55;;;;;;;13.63;11.57;;;;;;;;;;9943653;29;20079;-63
2022/10/08 06:06:54;;;;;;;14.90;12.13;;;;;;;;;;9956150;29;20086;-64
2022/10/08 06:11:53;;;;;;;13.88;10.25;;;;;;;;;;9960323;29;20103;-64
2022/10/08 06:16:51;;;;;;;12.55;10.85;;;;;;;;;;9955413;29;20076;-64
2022/10/08 06:21:50;;;;;;;24.60;17.05;;;;;;;;;;9955026;29;20131;-63
2022/10/08 06:26:49;;;;;;;25.23;15.25;;;;;;;;;;9955550;29;20455;-64
2022/10/08 06:31:47;;;;;;;35.63;21.33;;;;;;;;;;9952305;29;20565;-63
2022/10/08 06:36:46;;;;;;;43.28;22.88;;;;;;;;;;9952135;29;20511;-63
2022/10/08 06:41:44;;;;;;;37.83;17.80;;;;;;;;;;9958521;29;20546;-63
2022/10/08 06:46:44;;;;;;;39.50;16.83;;;;;;;;;;9948115;29;20048;-64
2022/10/08 06:51:42;;;;;;;27.30;16.17;;;;;;;;;;9961100;29;20091;-63
2022/10/08 06:56:40;;;;;;;22.83;14.85;;;;;;;;;;9961718;29;20079;-64
2022/10/08 07:01:39;;;;;;;19.23;14.18;;;;;;;;;;9944356;29;20052;-63
2022/10/08 07:06:39;;;;;;;18.88;15.35;;;;;;;;;;9956086;29;20135;-65
2022/10/08 07:11:38;;;;;;;20.50;15.85;;;;;;;;;;9959187;29;20080;-64
2022/10/08 07:16:38;;;;;;;21.95;15.52;;;;;;;;;;9959934;29;20518;-66
2022/10/08 07:21:36;;;;;;;16.65;13.95;;;;;;;;;;9960137;29;20080;-67
2022/10/08 07:26:40;;;;;;;16.88;12.95;;;;;;;;;;9944047;29;20084;-64
2022/10/08 07:31:41;;;;;;;16.58;12.40;;;;;;;;;;9959612;29;20080;-65
2022/10/08 07:36:43;;;;;;;25.40;15.48;;;;;;;;;;9971121;29;20088;-65
2022/10/08 07:41:43;;;;;;;15.23;13.45;;;;;;;;;;9970330;29;20056;-65
2022/10/08 07:46:42;;;;;;;16.60;12.90;;;;;;;;;;9957922;29;20076;-64
2022/10/08 07:51:43;;;;;;;18.10;13.77;;;;;;;;;;9958782;29;20076;-66
2022/10/08 07:56:43;;;;;;;19.48;12.68;;;;;;;;;;9963370;29;20541;-64
2022/10/08 08:01:41;;;;;;;21.27;12.88;;;;;;;;;;9961810;29;20091;-66
2022/10/08 08:06:41;;;;;;;17.77;12.93;;;;;;;;;;9961203;29;20087;-64
2022/10/08 08:11:42;;;;;;;19.45;12.45;;;;;;;;;;9955977;29;20145;-67
2022/10/08 08:16:42;;;;;;;16.42;12.30;;;;;;;;;;9956179;29;20091;-65
2022/10/08 08:21:40;;;;;;;23.65;13.95;;;;;;;;;;9950798;29;20076;-66
2022/10/08 08:26:39;;;;;;;15.27;12.20;;;;;;;;;;9948360;29;20460;-65
2022/10/08 08:31:38;;;;;;;14.48;12.30;;;;;;;;;;9948393;29;20084;-66
2022/10/08 08:36:39;;;;;;;19.48;12.90;;;;;;;;;;9951898;29;20084;-65
2022/10/08 08:41:50;;;;;;;18.08;12.38;;;;;;;;;;9958418;29;20533;-65
2022/10/08 08:46:52;;;;;;;21.17;13.88;;;;;;;;;;9962502;29;20087;-65
2022/10/08 08:51:53;;;;;;;16.02;12.00;;;;;;;;;;9965063;29;20497;-65
2022/10/08 08:56:52;;;;;;;15.73;11.30;;;;;;;;;;9961984;29;20106;-65
2022/10/08 09:01:51;;;;;;;21.27;11.52;;;;;;;;;;9957103;29;20077;-65
2022/10/08 09:06:51;;;;;;;20.83;11.65;;;;;;;;;;9945489;29;20084;-64
2022/10/08 09:11:51;;;;;;;33.45;25.05;;;;;;;;;;9941429;29;20084;-65
2022/10/08 09:16:49;;;;;;;22.00;14.68;;;;;;;;;;9939899;29;20112;-66
2022/10/08 09:21:47;;;;;;;20.75;14.63;;;;;;;;;;9943374;29;20089;-68
2022/10/08 09:26:45;;;;;;;21.95;13.90;;;;;;;;;;9943579;29;20534;-68
2022/10/08 09:31:46;;;;;;;18.20;12.70;;;;;;;;;;9949776;29;20458;-66
2022/10/08 09:36:46;;;;;;;19.77;11.65;;;;;;;;;;9963857;29;20506;-63
2022/10/08 09:41:44;;;;;;;15.30;10.07;;;;;;;;;;9954896;29;20076;-63
2022/10/08 09:46:42;;;;;;;13.15;8.00;;;;;;;;;;9948930;29;20076;-62
2022/10/08 09:51:42;;;;;;;8.85;6.60;;;;;;;;;;9963786;29;20091;-62
2022/10/08 09:56:41;;;;;;;13.60;6.93;;;;;;;;;;9962965;29;20080;-61
2022/10/08 10:01:44;;;;;;;11.35;6.70;;;;;;;;;;9963227;29;20091;-62
2022/10/08 10:06:47;;;;;;;17.47;9.30;;;;;;;;;;9960629;29;20068;-61
2022/10/08 10:11:46;;;;;;;9.88;6.82;;;;;;;;;;9939001;29;20084;-62
2022/10/08 10:16:46;;;;;;;9.55;7.50;;;;;;;;;;9955964;29;20080;-62
2022/10/08 10:21:51;;;;;;;11.45;5.35;;;;;;;;;;9971984;29;20548;-62
2022/10/08 10:26:51;;;;;;;12.27;5.18;;;;;;;;;;9965965;29;20088;-62
2022/10/08 10:31:52;;;;;;;10.52;6.07;;;;;;;;;;9962762;29;20107;-62
2022/10/08 10:36:52;;;;;;;7.22;5.65;;;;;;;;;;9963589;29;20080;-62
2022/10/08 10:41:53;;;;;;;6.65;5.43;;;;;;;;;;9957107;29;20088;-62
2022/10/08 10:46:52;;;;;;;8.57;4.70;;;;;;;;;;9953244;29;20084;-62
2022/10/08 10:52:00;;;;;;;11.95;6.15;;;;;;;;;;9956030;29;20103;-62
2022/10/08 10:57:05;;;;;;;15.02;8.55;;;;;;;;;;9954725;29;20518;-62
2022/10/08 11:02:10;;;;;;;6.45;4.93;;;;;;;;;;9955212;29;20080;-62
2022/10/08 11:07:18;;;;;;;7.22;5.82;;;;;;;;;;9955087;29;20084;-63
2022/10/08 11:12:23;;;;;;;9.73;6.15;;;;;;;;;;9955066;29;20084;-61
2022/10/08 11:17:28;;;;;;;7.90;6.35;;;;;;;;;;9953732;29;20762;-63
2022/10/08 11:22:30;;;;;;;9.40;5.82;;;;;;;;;;9948269;29;20076;-63
2022/10/08 11:27:34;;;;;;;12.10;6.05;;;;;;;;;;9944628;29;20184;-62
2022/10/08 11:32:33;;;;;;;12.13;6.25;;;;;;;;;;9941230;29;20092;-62
2022/10/08 11:37:35;;;;;;;8.65;7.00;;;;;;;;;;9942929;29;20085;-62
2022/10/08 11:42:36;;;;;;;7.40;6.35;;;;;;;;;;9939475;29;20514;-63
2022/10/08 11:47:50;;;;;;;13.82;6.65;;;;;;;;;;9950843;29;20072;-62
2022/10/08 11:52:50;;;;;;;10.10;6.85;;;;;;;;;;9953432;29;20080;-62
2022/10/08 11:57:54;;;;;;;8.50;6.70;;;;;;;;;;9950707;29;20088;-63
2022/10/08 12:03:06;;;;;;;7.80;6.13;;;;;;;;;;9938776;29;20084;-62
2022/10/08 12:08:06;;;;;;;6.22;5.45;;;;;;;;;;9915835;29;20084;-62
2022/10/08 12:13:25;;;;;;;11.00;5.97;;;;;;;;;;9931673;29;20501;-62
2022/10/08 12:18:31;;;;;;;9.63;5.93;;;;;;;;;;9935439;29;20087;-63
2022/10/08 12:23:39;;;;;;;7.88;6.53;;;;;;;;;;9951668;29;20083;-63
2022/10/08 12:28:49;;;;;;;7.47;6.20;;;;;;;;;;9942186;29;20084;-64
2022/10/08 12:34:01;;;;;;;10.93;6.32;;;;;;;;;;9954215;29;20103;-65
2022/10/08 12:39:02;;;;;;;6.60;5.55;;;;;;;;;;9948461;29;20088;-63
2022/10/08 12:44:04;;;;;;;5.70;4.60;;;;;;;;;;9942313;29;20095;-62
2022/10/08 12:49:05;;;;;;;8.27;5.82;;;;;;;;;;9942482;29;20076;-64
2022/10/08 12:54:05;;;;;;;5.88;4.60;;;;;;;;;;9938438;29;20151;-64
2022/10/08 12:59:04;;;;;;;11.77;6.35;;;;;;;;;;9942677;29;20091;-62
2022/10/08 13:04:09;;;;;;;6.70;5.13;;;;;;;;;;9950297;29;20080;-63
2022/10/08 13:09:24;;;;;;;5.80;4.95;;;;;;;;;;9959520;29;20087;-65
2022/10/08 13:14:23;;;;;;;10.80;4.70;;;;;;;;;;9942687;29;20084;-63
2022/10/08 13:19:27;;;;;;;5.65;4.30;;;;;;;;;;9944127;29;20099;-64
2022/10/08 13:24:31;;;;;;;8.25;6.25;;;;;;;;;;9964761;29;20091;-64
2022/10/08 13:29:31;;;;;;;8.68;4.75;;;;;;;;;;9969208;29;20462;-64
2022/10/08 13:34:31;;;;;;;9.95;4.18;;;;;;;;;;9970675;29;20103;-63
2022/10/08 13:39:32;;;;;;;5.70;5.00;;;;;;;;;;9954232;29;20089;-63
2022/10/08 13:44:32;;;;;;;8.88;4.82;;;;;;;;;;9948481;29;20088;-64
2022/10/08 13:49:34;;;;;;;7.05;5.20;;;;;;;;;;9924830;29;20342;-63
2022/10/08 13:54:34;;;;;;;13.95;6.05;;;;;;;;;;9941760;29;20103;-63
2022/10/08 13:59:38;;;;;;;5.65;5.13;;;;;;;;;;9938264;29;20084;-64
2022/10/08 14:04:40;;;;;;;7.63;4.28;;;;;;;;;;9927616;29;20555;-63
2022/10/08 14:09:39;;;;;;;8.70;4.85;;;;;;;;;;9939615;29;20522;-61
2022/10/08 14:14:39;;;;;;;6.50;4.20;;;;;;;;;;9936970;29;20092;-64
2022/10/08 14:19:40;;;;;;;11.05;5.43;;;;;;;;;;9942686;29;20089;-63
2022/10/08 14:24:43;;;;;;;14.45;6.20;;;;;;;;;;9937593;29;20092;-63
2022/10/08 14:29:41;;;;;;;5.93;4.88;;;;;;;;;;9937139;29;20083;-65
2022/10/08 14:34:40;;;;;;;9.02;5.18;;;;;;;;;;9926332;29;20053;-63
2022/10/08 14:39:38;;;;;;;12.65;5.00;;;;;;;;;;9920338;29;20089;-63
2022/10/08 14:44:38;;;;;;;13.77;6.40;;;;;;;;;;9938580;29;20088;-62
2022/10/08 14:49:37;;;;;;;7.70;5.97;;;;;;;;;;9934826;29;20080;-64
2022/10/08 14:54:36;;;;;;;8.43;5.57;;;;;;;;;;9942350;29;20542;-64
2022/10/08 14:59:34;;;;;;;11.00;7.35;;;;;;;;;;9937475;29;20099;-64
2022/10/08 15:04:38;;;;;;;14.13;9.52;;;;;;;;;;9953455;29;20083;-65
2022/10/08 15:09:39;;;;;;;15.65;12.82;;;;;;;;;;9949044;29;20103;-62
2022/10/08 15:14:37;;;;;;;13.60;9.38;;;;;;;;;;9935863;29;20068;-63
2022/10/08 15:19:35;;;;;;;16.67;12.25;;;;;;;;;;9936033;29;20100;-63
2022/10/08 15:24:36;;;;;;;12.63;8.82;;;;;;;;;;9944169;29;20087;-64
2022/10/08 15:29:35;;;;;;;16.50;10.77;;;;;;;;;;9936573;29;20094;-64
2022/10/08 15:34:35;;;;;;;11.73;6.10;;;;;;;;;;9934705;29;20527;-63
2022/10/08 15:39:33;;;;;;;10.68;5.72;;;;;;;;;;9946965;29;20111;-63
2022/10/08 15:44:34;;;;;;;7.13;5.10;;;;;;;;;;9936916;29;20085;-65
2022/10/08 15:49:36;;;;;;;12.00;5.28;;;;;;;;;;9935469;29;20084;-63
2022/10/08 15:54:35;;;;;;;11.68;6.00;;;;;;;;;;9937253;29;20084;-63
2022/10/08 15:59:34;;;;;;;11.52;7.25;;;;;;;;;;9947079;29;20532;-63
2022/10/08 16:04:33;;;;;;;12.00;6.90;;;;;;;;;;9937603;29;20080;-62
2022/10/08 16:09:31;;;;;;;7.43;5.22;;;;;;;;;;9948482;29;20080;-63
2022/10/08 16:14:29;;;;;;;8.48;5.13;;;;;;;;;;9925663;29;20983;-63
2022/10/08 16:19:29;;;;;;;8.63;5.45;;;;;;;;;;9929781;29;20085;-63
2022/10/08 16:24:30;;;;;;;10.85;6.32;;;;;;;;;;9944849;29;20092;-63
2022/10/08 16:29:30;;;;;;;8.95;4.60;;;;;;;;;;9946764;29;20091;-62
2022/10/08 16:34:30;;;;;;;8.32;5.00;;;;;;;;;;9965214;29;20166;-63
2022/10/08 16:39:29;;;;;;;7.80;4.40;;;;;;;;;;9951952;29;20095;-64
2022/10/08 16:44:27;;;;;;;10.23;5.28;;;;;;;;;;9943476;29;20080;-61
2022/10/08 16:49:26;;;;;;;35.13;13.55;;;;;;;;;;9951247;29;20087;-63
2022/10/08 16:54:27;;;;;;;10.57;6.45;;;;;;;;;;9948539;29;20084;-62
2022/10/08 16:59:26;;;;;;;8.65;5.05;;;;;;;;;;9950825;29;20091;-63
2022/10/08 17:04:25;;;;;;;7.88;5.88;;;;;;;;;;9950786;29;20080;-63
2022/10/08 17:09:23;;;;;;;9.98;5.60;;;;;;;;;;9957211;29;20079;-64
2022/10/08 17:14:23;;;;;;;9.20;4.95;;;;;;;;;;9956424;29;20091;-63
2022/10/08 17:19:21;;;;;;;9.52;6.03;;;;;;;;;;9955628;29;20154;-63
2022/10/08 17:24:19;;;;;;;11.48;6.28;;;;;;;;;;9958390;29;20083;-64
2022/10/08 17:29:18;;;;;;;10.75;5.80;;;;;;;;;;9958461;29;20080;-64
2022/10/08 17:34:17;;;;;;;10.60;5.65;;;;;;;;;;9956464;29;20079;-63
2022/10/08 17:39:15;;;;;;;7.75;5.57;;;;;;;;;;9947693;29;20084;-62
2022/10/08 17:44:14;;;;;;;5.47;4.07;;;;;;;;;;9955315;29;20088;-62
2022/10/08 17:49:12;;;;;;;10.07;6.07;;;;;;;;;;9954129;29;20431;-63
2022/10/08 17:54:13;;;;;;;9.60;6.25;;;;;;;;;;9958118;29;20150;-62
2022/10/08 17:59:13;;;;;;;5.55;4.50;;;;;;;;;;9955348;29;20099;-63
2022/10/08 18:04:12;;;;;;;5.72;4.45;;;;;;;;;;9949255;29;20089;-63
2022/10/08 18:09:12;;;;;;;7.82;4.57;;;;;;;;;;9930521;29;20081;-63
2022/10/08 18:14:11;;;;;;;12.57;5.25;;;;;;;;;;9932599;29;20546;-61
2022/10/08 18:19:13;;;;;;;4.80;4.00;;;;;;;;;;9924701;29;20089;-63
2022/10/08 18:24:14;;;;;;;7.22;4.05;;;;;;;;;;9925745;29;20100;-62
2022/10/08 18:29:13;;;;;;;7.05;4.53;;;;;;;;;;9927509;29;20095;-63
2022/10/08 18:34:12;;;;;;;5.30;3.97;;;;;;;;;;9934376;29;20605;-64
2022/10/08 18:39:11;;;;;;;7.75;4.75;;;;;;;;;;9924599;29;20084;-64
2022/10/08 18:44:12;;;;;;;8.82;4.85;;;;;;;;;;9924314;29;20087;-63
2022/10/08 18:49:12;;;;;;;9.73;5.07;;;;;;;;;;9931339;29;20076;-63
2022/10/08 18:54:11;;;;;;;6.57;4.82;;;;;;;;;;9937737;29;20088;-63
2022/10/08 18:59:13;;;;;;;12.35;5.07;;;;;;;;;;9936218;29;20080;-63
2022/10/08 19:04:12;;;;;;;6.00;4.40;;;;;;;;;;9929568;29;20084;-62
2022/10/08 19:09:10;;;;;;;6.60;4.93;;;;;;;;;;9926664;29;20080;-64
2022/10/08 19:14:10;;;;;;;4.88;4.22;;;;;;;;;;9924738;29;20084;-65
2022/10/08 19:19:12;;;;;;;9.63;5.20;;;;;;;;;;9923360;29;20084;-63
2022/10/08 19:24:12;;;;;;;9.70;5.40;;;;;;;;;;9926529;29;20550;-63
2022/10/08 19:29:13;;;;;;;13.02;5.22;;;;;;;;;;9924104;29;20072;-63
2022/10/08 19:34:14;;;;;;;7.72;4.88;;;;;;;;;;9924697;29;20120;-63
2022/10/08 19:39:13;;;;;;;7.25;4.75;;;;;;;;;;9923797;29;20083;-63
2022/10/08 19:44:12;;;;;;;5.82;4.60;;;;;;;;;;9927071;29;20107;-63
2022/10/08 19:49:10;;;;;;;10.55;4.57;;;;;;;;;;9923882;29;20088;-62
2022/10/08 19:54:10;;;;;;;11.57;5.43;;;;;;;;;;9923625;29;20076;-63
2022/10/08 19:59:09;;;;;;;7.40;4.65;;;;;;;;;;9924084;29;20092;-64
2022/10/08 20:04:08;;;;;;;7.43;5.78;;;;;;;;;;9928699;29;20089;-64
2022/10/08 20:09:09;;;;;;;7.78;6.03;;;;;;;;;;9923619;29;20526;-62
2022/10/08 20:14:09;;;;;;;9.73;5.82;;;;;;;;;;9923741;29;20084;-61
2022/10/08 20:19:08;;;;;;;10.10;6.95;;;;;;;;;;9924767;29;20542;-63
2022/10/08 20:24:06;;;;;;;11.82;7.72;;;;;;;;;;9924245;29;20080;-62
2022/10/08 20:29:06;;;;;;;8.23;6.40;;;;;;;;;;9923662;29;20095;-63
2022/10/08 20:34:06;;;;;;;8.07;5.45;;;;;;;;;;9923606;29;20115;-64
2022/10/08 20:39:05;;;;;;;8.68;5.55;;;;;;;;;;9924395;29;20612;-63
2022/10/08 20:44:04;;;;;;;9.13;5.30;;;;;;;;;;9931344;29;20105;-62
2022/10/08 20:49:02;;;;;;;7.03;5.65;;;;;;;;;;9931753;29;20136;-62
2022/10/08 20:54:04;;;;;;;9.18;5.35;;;;;;;;;;9930849;29;20077;-62
2022/10/08 20:59:02;;;;;;;9.38;5.55;;;;;;;;;;9928720;29;20084;-62
2022/10/08 21:04:01;;;;;;;9.65;5.13;;;;;;;;;;9927951;29;20151;-63
2022/10/08 21:08:59;;;;;;;6.72;5.80;;;;;;;;;;9928322;29;20085;-64
2022/10/08 21:14:00;;;;;;;10.57;5.63;;;;;;;;;;9927800;29;20080;-62
2022/10/08 21:18:59;;;;;;;9.50;5.30;;;;;;;;;;9929703;29;20080;-64
2022/10/08 21:23:58;;;;;;;8.52;6.47;;;;;;;;;;9926566;29;20085;-62
2022/10/08 21:28:57;;;;;;;9.48;6.18;;;;;;;;;;9927266;29;20080;-62
2022/10/08 21:33:57;;;;;;;10.43;6.60;;;;;;;;;;9928205;29;20085;-63
2022/10/08 21:38:56;;;;;;;7.30;5.97;;;;;;;;;;9942358;29;20076;-63
2022/10/08 21:43:55;;;;;;;7.80;6.07;;;;;;;;;;9933857;29;20095;-61
2022/10/08 21:48:55;;;;;;;9.55;5.82;;;;;;;;;;9928396;29;20099;-63
2022/10/08 21:53:55;;;;;;;7.68;5.68;;;;;;;;;;9938957;29;20466;-63
2022/10/08 21:58:54;;;;;;;6.57;5.38;;;;;;;;;;9933772;29;20439;-64
2022/10/08 22:03:53;;;;;;;6.28;5.22;;;;;;;;;;9928404;29;20132;-62
2022/10/08 22:08:51;;;;;;;5.72;5.22;;;;;;;;;;9925901;29;20091;-63
2022/10/08 22:13:53;;;;;;;13.40;5.18;;;;;;;;;;9932633;29;20072;-62
2022/10/08 22:18:52;;;;;;;7.10;5.35;;;;;;;;;;9928513;29;20084;-64
2022/10/08 22:23:52;;;;;;;9.60;4.70;;;;;;;;;;9929182;29;20107;-64
2022/10/08 22:28:50;;;;;;;6.82;5.82;;;;;;;;;;9925100;29;20091;-64
2022/10/08 22:33:50;;;;;;;6.80;5.13;;;;;;;;;;9928232;29;20119;-62
2022/10/08 22:38:48;;;;;;;9.40;5.03;;;;;;;;;;9926377;29;20084;-62
2022/10/08 22:43:47;;;;;;;8.07;5.78;;;;;;;;;;9925525;29;20081;-63
2022/10/08 22:48:46;;;;;;;9.00;5.03;;;;;;;;;;9924117;29;20080;-62
2022/10/08 22:53:46;;;;;;;8.80;6.25;;;;;;;;;;9927967;29;20523;-63
2022/10/08 22:58:44;;;;;;;6.72;6.03;;;;;;;;;;9925765;29;20072;-64
2022/10/08 23:03:42;;;;;;;7.32;5.40;;;;;;;;;;9924152;29;20095;-62
2022/10/08 23:08:41;;;;;;;7.13;5.32;;;;;;;;;;9925482;29;20072;-62
2022/10/08 23:13:44;;;;;;;5.95;4.95;;;;;;;;;;9925467;29;20456;-63
2022/10/08 23:18:43;;;;;;;7.75;5.88;;;;;;;;;;9925598;29;20068;-64
2022/10/08 23:23:42;;;;;;;11.57;5.32;;;;;;;;;;9925300;29;20486;-63
2022/10/08 23:28:42;;;;;;;6.53;5.22;;;;;;;;;;9929239;29;20535;-62
2022/10/08 23:33:42;;;;;;;7.82;5.60;;;;;;;;;;9921809;29;20080;-63
2022/10/08 23:38:40;;;;;;;8.35;5.20;;;;;;;;;;9922761;29;20080;-63
2022/10/08 23:43:39;;;;;;;8.45;5.40;;;;;;;;;;9920923;29;20080;-63
2022/10/08 23:48:39;;;;;;;8.25;4.97;;;;;;;;;;9922853;29;20073;-62
2022/10/08 23:53:37;;;;;;;11.05;6.10;;;;;;;;;;9923146;29;20081;-62
2022/10/08 23:58:35;;;;;;;6.35;5.32;;;;;;;;;;9922323;29;20091;-63
